createdAt,value
2018-01-19T00:02:20.419Z,7.20
2018-01-19T00:04:55.141Z,7.50
2018-01-19T00:07:29.355Z,7.40
2018-01-19T00:10:03.704Z,7.50
2018-01-19T00:12:37.624Z,7.50
2018-01-19T00:15:11.927Z,7.50
2018-01-19T00:17:46.616Z,6.60
2018-01-19T00:20:20.861Z,6.60
2018-01-19T00:22:55.041Z,6.50
2018-01-19T00:25:28.923Z,6.50
2018-01-19T00:28:03.328Z,6.10
2018-01-19T00:30:37.490Z,6.10
2018-01-19T00:33:12.814Z,5.90
2018-01-19T00:35:47.255Z,5.90
2018-01-19T00:38:21.062Z,5.90
2018-01-19T00:40:55.660Z,5.90
2018-01-19T00:43:30.940Z,5.90
2018-01-19T00:46:05.346Z,6.10
2018-01-19T00:48:39.091Z,6.30
2018-01-19T00:51:13.827Z,6.20
2018-01-19T00:53:47.689Z,6.20
2018-01-19T00:56:21.504Z,6.60
2018-01-19T00:58:55.234Z,6.50
2018-01-19T01:01:29.369Z,6.40
2018-01-19T01:04:03.489Z,6.30
2018-01-19T01:06:38.891Z,6.80
2018-01-19T01:09:13.950Z,6.70
2018-01-19T01:11:49.032Z,6.60
2018-01-19T01:14:23.419Z,6.60
2018-01-19T01:16:57.295Z,6.60
2018-01-19T01:19:32.036Z,6.50
2018-01-19T01:22:06.379Z,6.50
2018-01-19T01:24:40.422Z,6.50
2018-01-19T01:27:14.700Z,6.60
2018-01-19T01:29:49.496Z,6.60
2018-01-19T01:32:23.392Z,6.60
2018-01-19T01:34:57.477Z,6.50
2018-01-19T01:37:32.279Z,6.50
2018-01-19T01:40:06.453Z,6.60
2018-01-19T01:42:41.037Z,6.60
2018-01-19T01:45:15.604Z,6.80
2018-01-19T01:47:49.816Z,6.70
2018-01-19T01:50:24.398Z,6.80
2018-01-19T01:52:59.022Z,6.70
2018-01-19T01:55:32.945Z,6.70
2018-01-19T01:58:07.549Z,6.70
2018-01-19T02:00:41.584Z,6.60
2018-01-19T02:03:15.823Z,6.70
2018-01-19T02:05:50.099Z,6.60
2018-01-19T02:08:24.009Z,6.50
2018-01-19T02:10:57.847Z,6.50
2018-01-19T02:13:32.448Z,6.60
2018-01-19T02:16:06.438Z,6.50
2018-01-19T02:18:40.720Z,6.40
2018-01-19T02:21:14.903Z,6.50
2018-01-19T02:23:49.299Z,6.50
2018-01-19T02:26:23.405Z,6.50
2018-01-19T02:28:57.668Z,6.60
2018-01-19T02:31:31.728Z,6.60
2018-01-19T02:34:05.852Z,6.50
2018-01-19T02:36:39.913Z,6.50
2018-01-19T02:39:13.910Z,6.50
2018-01-19T02:41:47.911Z,6.60
2018-01-19T02:44:23.118Z,6.70
2018-01-19T02:46:57.111Z,6.70
2018-01-19T02:49:31.087Z,6.60
2018-01-19T02:52:05.832Z,6.60
2018-01-19T02:54:40.107Z,6.60
2018-01-19T02:57:14.557Z,6.50
2018-01-19T02:59:49.642Z,6.70
2018-01-19T03:02:23.367Z,6.70
2018-01-19T03:04:57.283Z,6.60
2018-01-19T03:07:31.719Z,6.50
2018-01-19T03:10:06.844Z,6.50
2018-01-19T03:12:41.367Z,6.50
2018-01-19T03:15:16.183Z,6.40
2018-01-19T03:17:50.141Z,6.40
2018-01-19T03:20:23.935Z,6.50
2018-01-19T03:22:59.367Z,6.50
2018-01-19T03:25:33.599Z,6.50
2018-01-19T03:28:07.956Z,6.50
2018-01-19T03:30:42.011Z,6.50
2018-01-19T03:33:16.385Z,6.50
2018-01-19T03:35:50.623Z,6.40
2018-01-19T03:38:24.838Z,6.40
2018-01-19T03:40:59.180Z,6.40
2018-01-19T03:43:33.139Z,6.20
2018-01-19T03:46:08.365Z,6.30
2018-01-19T03:48:42.827Z,6.30
2018-01-19T03:51:17.971Z,6.30
2018-01-19T03:53:51.939Z,6.30
2018-01-19T03:56:26.162Z,6.20
2018-01-19T03:59:00.442Z,6.20
2018-01-19T04:01:34.983Z,6.20
2018-01-19T04:04:09.150Z,6.20
2018-01-19T04:06:43.726Z,6.40
2018-01-19T04:09:17.937Z,6.40
2018-01-19T04:11:51.776Z,6.20
2018-01-19T04:14:25.629Z,6.10
2018-01-19T04:17:00.253Z,6.10
2018-01-19T04:19:34.755Z,5.90
2018-01-19T04:22:08.746Z,5.90
2018-01-19T04:24:43.441Z,5.90
2018-01-19T04:27:17.551Z,5.90
2018-01-19T04:29:51.319Z,5.80
2018-01-19T04:32:25.140Z,5.80
2018-01-19T04:34:59.663Z,5.70
2018-01-19T04:37:34.017Z,5.70
2018-01-19T04:40:08.601Z,5.70
2018-01-19T04:42:42.361Z,5.80
2018-01-19T04:45:17.011Z,5.70
2018-01-19T04:47:52.218Z,5.80
2018-01-19T04:50:26.431Z,5.80
2018-01-19T04:53:00.534Z,5.80
2018-01-19T04:55:34.557Z,5.60
2018-01-19T04:58:08.410Z,5.70
2018-01-19T05:00:42.349Z,5.70
2018-01-19T05:03:19.441Z,5.60
2018-01-19T05:05:53.912Z,5.60
2018-01-19T05:08:27.624Z,5.60
2018-01-19T05:11:01.544Z,5.60
2018-01-19T05:13:35.342Z,5.60
2018-01-19T05:16:09.184Z,5.70
2018-01-19T05:18:43.884Z,5.70
2018-01-19T05:21:17.740Z,5.70
2018-01-19T05:23:52.424Z,5.70
2018-01-19T05:26:26.507Z,5.70
2018-01-19T05:29:00.952Z,5.60
2018-01-19T05:31:34.794Z,5.60
2018-01-19T05:34:08.767Z,5.60
2018-01-19T05:36:42.465Z,5.60
2018-01-19T05:39:16.164Z,5.60
2018-01-19T05:41:49.888Z,5.60
2018-01-19T05:44:23.732Z,5.50
2018-01-19T05:46:57.655Z,5.60
2018-01-19T05:49:32.315Z,5.60
2018-01-19T05:52:06.596Z,5.60
2018-01-19T05:54:40.382Z,5.60
2018-01-19T05:57:15.075Z,5.60
2018-01-19T05:59:48.943Z,5.50
2018-01-19T06:02:23.881Z,5.30
2018-01-19T06:04:59.040Z,5.40
2018-01-19T06:07:33.154Z,5.40
2018-01-19T06:10:08.107Z,5.40
2018-01-19T06:12:43.044Z,5.30
2018-01-19T06:15:18.484Z,5.30
2018-01-19T06:17:53.801Z,5.30
2018-01-19T06:20:29.150Z,5.30
2018-01-19T06:23:04.747Z,5.30
2018-01-19T06:25:38.543Z,5.30
2018-01-19T06:28:12.397Z,5.20
2018-01-19T06:30:46.951Z,5.30
2018-01-19T06:33:21.041Z,5.30
2018-01-19T06:35:54.981Z,5.30
2018-01-19T06:38:29.626Z,5.20
2018-01-19T06:41:03.496Z,5.40
2018-01-19T06:43:37.227Z,5.50
2018-01-19T06:46:11.045Z,5.40
2018-01-19T06:48:44.800Z,5.30
2018-01-19T06:51:19.645Z,5.30
2018-01-19T06:53:53.487Z,5.30
2018-01-19T06:56:28.176Z,5.30
2018-01-19T06:59:02.199Z,5.30
2018-01-19T07:01:36.432Z,5.40
2018-01-19T07:04:10.704Z,5.30
2018-01-19T07:06:45.535Z,5.60
2018-01-19T07:09:20.749Z,5.50
2018-01-19T07:11:56.040Z,5.50
2018-01-19T07:14:30.341Z,5.50
2018-01-19T07:17:04.393Z,5.40
2018-01-19T07:19:38.223Z,5.50
2018-01-19T07:22:12.872Z,5.50
2018-01-19T07:24:47.151Z,5.50
2018-01-19T07:27:21.579Z,5.50
2018-01-19T07:29:55.697Z,5.60
2018-01-19T07:32:29.764Z,5.70
2018-01-19T07:35:03.638Z,5.60
2018-01-19T07:37:37.760Z,5.70
2018-01-19T07:40:13.265Z,5.50
2018-01-19T07:42:47.268Z,5.60
2018-01-19T07:45:21.133Z,5.50
2018-01-19T07:47:55.890Z,5.60
2018-01-19T07:50:30.644Z,5.50
2018-01-19T07:53:05.598Z,5.60
2018-01-19T07:55:39.754Z,5.50
2018-01-19T07:58:14.427Z,5.50
2018-01-19T08:00:48.274Z,5.50
2018-01-19T08:03:24.980Z,5.60
2018-01-19T08:05:58.661Z,5.60
2018-01-19T08:08:32.506Z,5.70
2018-01-19T08:11:06.335Z,5.70
2018-01-19T08:13:40.502Z,5.70
2018-01-19T08:16:14.686Z,5.70
2018-01-19T08:18:49.715Z,5.70
2018-01-19T08:21:23.709Z,5.70
2018-01-19T08:23:57.930Z,5.80
2018-01-19T08:26:31.886Z,5.80
2018-01-19T08:29:06.902Z,5.90
2018-01-19T08:31:41.064Z,5.90
2018-01-19T08:34:15.071Z,5.90
2018-01-19T08:36:49.391Z,6.00
2018-01-19T08:39:24.050Z,6.00
2018-01-19T08:41:58.291Z,5.90
2018-01-19T08:44:33.283Z,6.10
2018-01-19T08:47:07.377Z,6.10
2018-01-19T08:49:41.521Z,5.90
2018-01-19T08:52:15.269Z,6.20
2018-01-19T08:54:50.094Z,6.20
2018-01-19T08:57:24.071Z,6.20
2018-01-19T08:59:58.059Z,6.30
2018-01-19T09:02:31.934Z,6.20
2018-01-19T09:05:06.493Z,6.30
2018-01-19T09:07:40.703Z,6.20
2018-01-19T09:10:14.679Z,6.30
2018-01-19T09:12:49.664Z,6.20
2018-01-19T09:15:24.289Z,6.10
2018-01-19T09:17:58.181Z,6.30
2018-01-19T09:20:33.426Z,6.40
2018-01-19T09:23:08.713Z,6.50
2018-01-19T09:25:44.133Z,6.50
2018-01-19T09:28:18.024Z,6.50
2018-01-19T09:30:52.956Z,6.40
2018-01-19T09:33:27.568Z,6.40
2018-01-19T09:36:01.633Z,6.30
2018-01-19T09:38:35.691Z,6.40
2018-01-19T09:41:09.759Z,6.40
2018-01-19T09:43:43.825Z,6.50
2018-01-19T09:46:18.285Z,6.40
2018-01-19T09:48:52.264Z,6.50
2018-01-19T09:51:26.425Z,6.50
2018-01-19T09:54:04.419Z,6.60
2018-01-19T09:56:39.072Z,6.60
2018-01-19T09:59:13.358Z,6.60
2018-01-19T10:01:47.931Z,6.50
2018-01-19T10:04:21.737Z,6.50
2018-01-19T10:06:55.468Z,6.50
2018-01-19T10:09:30.170Z,6.60
2018-01-19T10:12:03.979Z,6.50
2018-01-19T10:14:37.701Z,6.60
2018-01-19T10:17:13.345Z,6.90
2018-01-19T10:19:47.453Z,6.90
2018-01-19T10:22:21.251Z,6.80
2018-01-19T10:24:55.013Z,6.70
2018-01-19T10:27:29.459Z,6.80
2018-01-19T10:30:03.522Z,6.80
2018-01-19T10:32:37.362Z,6.80
2018-01-19T10:35:11.411Z,6.80
2018-01-19T10:37:45.911Z,6.70
2018-01-19T10:40:19.771Z,6.50
2018-01-19T10:42:53.930Z,6.30
2018-01-19T10:45:29.062Z,6.20
2018-01-19T10:48:03.472Z,6.20
2018-01-19T10:50:38.375Z,6.20
2018-01-19T10:53:13.744Z,6.30
2018-01-19T10:55:48.252Z,8.20
2018-01-19T10:58:22.533Z,8.20
2018-01-19T11:00:57.707Z,7.00
2018-01-19T11:03:32.162Z,7.00
2018-01-19T11:06:05.954Z,6.80
2018-01-19T11:08:39.921Z,7.00
2018-01-19T11:11:14.471Z,7.00
2018-01-19T11:13:48.658Z,6.90
2018-01-19T11:16:23.197Z,7.10
2018-01-19T11:18:57.417Z,7.10
2018-01-19T11:21:32.054Z,7.10
2018-01-19T11:24:06.203Z,7.10
2018-01-19T11:26:40.678Z,7.10
2018-01-19T11:29:15.385Z,7.00
2018-01-19T11:31:49.906Z,7.20
2018-01-19T11:34:24.029Z,7.10
2018-01-19T11:36:58.695Z,7.20
2018-01-19T11:39:32.424Z,7.20
2018-01-19T11:42:07.154Z,7.20
2018-01-19T11:44:40.917Z,7.20
2018-01-19T11:47:14.948Z,7.10
2018-01-19T11:49:49.102Z,7.00
2018-01-19T11:52:23.256Z,7.10
2018-01-19T11:54:58.211Z,7.20
2018-01-19T11:57:33.528Z,7.80
2018-01-19T12:00:08.319Z,7.80
2018-01-19T12:02:42.282Z,8.00
2018-01-19T12:05:16.604Z,8.00
2018-01-19T12:07:50.835Z,7.90
2018-01-19T12:10:24.983Z,7.80
2018-01-19T12:12:59.943Z,7.40
2018-01-19T12:15:34.236Z,7.40
2018-01-19T12:18:08.459Z,7.30
2018-01-19T12:20:43.443Z,7.80
2018-01-19T12:23:18.823Z,7.70
2018-01-19T12:25:52.610Z,7.30
2018-01-19T12:28:27.381Z,7.30
2018-01-19T12:31:01.348Z,7.30
2018-01-19T12:33:35.190Z,7.40
2018-01-19T12:36:09.917Z,7.50
2018-01-19T12:38:43.939Z,7.30
2018-01-19T12:41:18.491Z,7.30
2018-01-19T12:43:52.522Z,7.30
2018-01-19T12:46:26.530Z,7.20
2018-01-19T12:49:00.219Z,7.10
2018-01-19T12:51:33.979Z,7.20
2018-01-19T12:54:07.827Z,6.80
2018-01-19T12:56:41.739Z,6.50
2018-01-19T12:59:16.166Z,6.20
2018-01-19T13:01:50.563Z,5.70
2018-01-19T13:04:25.532Z,6.10
2018-01-19T13:07:00.172Z,6.10
2018-01-19T13:09:34.952Z,6.30
2018-01-19T13:12:09.151Z,6.20
2018-01-19T13:14:43.275Z,6.10
2018-01-19T13:17:17.635Z,6.20
2018-01-19T13:19:51.827Z,6.20
2018-01-19T13:22:26.085Z,6.20
2018-01-19T13:25:00.896Z,6.20
2018-01-19T13:27:36.077Z,6.60
2018-01-19T13:30:10.618Z,6.60
2018-01-19T13:32:45.446Z,6.40
2018-01-19T13:35:19.605Z,6.40
2018-01-19T13:37:54.279Z,6.20
2018-01-19T13:40:28.381Z,6.10
2018-01-19T13:43:02.075Z,6.10
2018-01-19T13:45:35.797Z,6.20
2018-01-19T13:48:09.482Z,6.30
2018-01-19T13:50:43.353Z,6.40
2018-01-19T13:53:17.947Z,7.00
2018-01-19T13:55:52.052Z,7.00
2018-01-19T13:58:26.692Z,6.70
2018-01-19T14:01:00.787Z,6.70
2018-01-19T14:03:34.609Z,6.60
2018-01-19T14:06:08.379Z,6.20
2018-01-19T14:08:42.331Z,6.40
2018-01-19T14:11:16.582Z,6.40
2018-01-19T14:13:51.534Z,7.10
2018-01-19T14:16:26.435Z,6.70
2018-01-19T14:19:01.065Z,6.70
2018-01-19T14:21:34.919Z,6.50
2018-01-19T14:24:09.823Z,6.60
2018-01-19T14:26:44.766Z,6.50
2018-01-19T14:29:19.272Z,6.50
2018-01-19T14:31:53.050Z,6.40
2018-01-19T14:34:27.078Z,6.30
2018-01-19T14:37:02.232Z,6.40
2018-01-19T14:39:36.553Z,6.40
2018-01-19T14:42:11.488Z,6.10
2018-01-19T14:44:45.884Z,6.10
2018-01-19T14:47:20.539Z,6.20
2018-01-19T14:49:54.496Z,6.20
2018-01-19T14:52:29.306Z,6.40
2018-01-19T14:55:03.339Z,6.30
2018-01-19T14:57:37.119Z,6.40
2018-01-19T15:00:11.051Z,6.50
2018-01-19T15:02:46.599Z,6.50
2018-01-19T15:05:21.426Z,6.50
2018-01-19T15:07:56.465Z,6.60
2018-01-19T15:10:31.085Z,6.40
2018-01-19T15:13:06.548Z,6.70
2018-01-19T15:15:41.262Z,6.50
2018-01-19T15:18:15.272Z,6.50
2018-01-19T15:20:49.657Z,6.40
2018-01-19T15:23:26.617Z,6.50
2018-01-19T15:26:00.636Z,6.50
2018-01-19T15:28:34.917Z,6.90
2018-01-19T15:31:09.167Z,7.00
2018-01-19T15:33:43.269Z,7.20
2018-01-19T15:36:17.564Z,7.30
2018-01-19T15:38:51.616Z,7.30
2018-01-19T15:41:25.708Z,7.20
2018-01-19T15:43:59.520Z,7.20
2018-01-19T15:46:33.273Z,7.30
2018-01-19T15:49:07.384Z,7.20
2018-01-19T15:51:42.447Z,7.30
2018-01-19T15:54:18.087Z,7.20
2018-01-19T15:56:52.825Z,7.20
2018-01-19T15:59:29.139Z,6.80
2018-01-19T16:02:03.115Z,6.80
2018-01-19T16:04:37.065Z,6.60
2018-01-19T16:07:12.574Z,6.60
2018-01-19T16:09:47.485Z,6.60
2018-01-19T16:12:22.501Z,6.60
2018-01-19T16:14:57.314Z,6.60
2018-01-19T16:17:33.265Z,6.20
2018-01-19T16:20:08.718Z,6.20
2018-01-19T16:22:43.696Z,6.20
2018-01-19T16:25:19.092Z,6.40
2018-01-19T16:27:54.225Z,6.40
2018-01-19T16:30:28.583Z,6.50
2018-01-19T16:33:02.763Z,6.50
2018-01-19T16:35:38.518Z,6.80
2018-01-19T16:38:13.261Z,6.80
2018-01-19T16:40:47.357Z,6.60
2018-01-19T16:43:23.241Z,6.40
2018-01-19T16:45:57.618Z,6.30
2018-01-19T16:48:32.981Z,6.30
2018-01-19T16:51:08.114Z,6.20
2018-01-19T16:53:42.354Z,6.10
2018-01-19T16:56:16.238Z,6.00
2018-01-19T16:58:50.455Z,6.10
2018-01-19T17:01:24.554Z,6.00
2018-01-19T17:03:58.658Z,5.90
2018-01-19T17:06:33.014Z,6.10
2018-01-19T17:09:08.224Z,6.00
2018-01-19T17:11:42.253Z,5.90
2018-01-19T17:14:17.865Z,6.00
2018-01-19T17:16:52.098Z,6.00
2018-01-19T17:19:26.113Z,6.00
2018-01-19T17:22:00.030Z,6.00
2018-01-19T17:24:35.638Z,5.80
2018-01-19T17:27:09.493Z,5.70
2018-01-19T17:29:44.867Z,6.10
2018-01-19T17:32:19.032Z,6.10
2018-01-19T17:34:54.503Z,6.10
2018-01-19T17:37:29.083Z,6.00
2018-01-19T17:40:04.224Z,6.40
2018-01-19T17:42:40.431Z,6.20
2018-01-19T17:45:14.709Z,6.10
2018-01-19T17:47:48.971Z,5.90
2018-01-19T17:50:23.852Z,5.90
2018-01-19T17:52:58.994Z,5.90
2018-01-19T17:55:32.913Z,5.90
2018-01-19T17:58:07.718Z,5.80
2018-01-19T18:00:43.241Z,6.10
2018-01-19T18:03:19.736Z,6.10
2018-01-19T18:05:55.155Z,5.80
2018-01-19T18:08:30.119Z,5.70
2018-01-19T18:11:04.045Z,5.50
2018-01-19T18:13:38.732Z,5.50
2018-01-19T18:16:12.966Z,5.50
2018-01-19T18:18:47.002Z,5.50
2018-01-19T18:21:22.017Z,5.40
2018-01-19T18:23:56.778Z,5.50
2018-01-19T18:26:31.464Z,5.50
2018-01-19T18:29:06.045Z,5.50
2018-01-19T18:31:40.126Z,5.60
2018-01-19T18:34:14.908Z,5.60
2018-01-19T18:36:49.804Z,5.50
2018-01-19T18:39:24.401Z,5.40
2018-01-19T18:41:59.416Z,5.50
2018-01-19T18:44:33.167Z,5.50
2018-01-19T18:47:06.970Z,5.30
2018-01-19T18:49:40.874Z,5.50
2018-01-19T18:52:16.397Z,5.40
2018-01-19T18:54:51.001Z,5.40
2018-01-19T18:57:24.947Z,5.30
2018-01-19T18:59:59.059Z,5.30
2018-01-19T19:02:32.777Z,5.30
2018-01-19T19:05:06.685Z,5.50
2018-01-19T19:07:40.755Z,5.30
2018-01-19T19:10:15.528Z,5.30
2018-01-19T19:12:49.505Z,5.40
2018-01-19T19:15:24.324Z,5.30
2018-01-19T19:17:58.369Z,5.40
2018-01-19T19:20:32.157Z,5.20
2018-01-19T19:23:06.901Z,5.40
2018-01-19T19:25:42.089Z,5.40
2018-01-19T19:28:16.426Z,5.40
2018-01-19T19:30:51.782Z,5.30
2018-01-19T19:33:25.840Z,5.30
2018-01-19T19:35:59.612Z,5.30
2018-01-19T19:38:33.539Z,5.50
2018-01-19T19:41:09.036Z,5.40
2018-01-19T19:43:43.204Z,5.40
2018-01-19T19:46:17.666Z,5.40
2018-01-19T19:48:51.508Z,5.20
2018-01-19T19:51:25.278Z,5.20
2018-01-19T19:53:59.070Z,5.30
2018-01-19T19:56:32.877Z,5.40
2018-01-19T19:59:07.489Z,5.40
2018-01-19T20:01:41.359Z,5.30
2018-01-19T20:04:15.199Z,5.30
2018-01-19T20:06:50.769Z,5.30
2018-01-19T20:09:24.950Z,5.30
2018-01-19T20:11:59.789Z,5.30
2018-01-19T20:14:34.477Z,5.40
2018-01-19T20:17:09.312Z,5.20
2018-01-19T20:19:43.627Z,5.20
2018-01-19T20:22:17.526Z,5.20
2018-01-19T20:24:51.715Z,5.10
2018-01-19T20:27:26.541Z,5.10
2018-01-19T20:30:01.503Z,5.10
2018-01-19T20:32:35.632Z,5.10
2018-01-19T20:35:09.898Z,5.10
2018-01-19T20:37:43.900Z,5.00
2018-01-19T20:40:17.825Z,5.10
2018-01-19T20:42:51.995Z,5.20
2018-01-19T20:45:26.593Z,5.00
2018-01-19T20:48:00.817Z,5.00
2018-01-19T20:50:36.257Z,5.00
2018-01-19T20:53:10.177Z,5.00
2018-01-19T20:55:45.156Z,5.00
2018-01-19T20:58:20.497Z,5.20
2018-01-19T21:00:54.251Z,5.20
2018-01-19T21:03:29.165Z,5.10
2018-01-19T21:06:04.488Z,5.00
2018-01-19T21:08:38.385Z,5.00
2018-01-19T21:11:13.943Z,5.00
2018-01-19T21:13:48.152Z,4.90
2018-01-19T21:16:22.859Z,5.10
2018-01-19T21:18:57.693Z,4.90
2018-01-19T21:21:32.225Z,4.90
2018-01-19T21:24:07.589Z,4.80
2018-01-19T21:26:42.065Z,4.80
2018-01-19T21:29:15.893Z,4.80
2018-01-19T21:31:49.890Z,5.10
2018-01-19T21:34:25.415Z,4.80
2018-01-19T21:36:59.812Z,4.80
2018-01-19T21:39:33.511Z,4.70
2018-01-19T21:42:07.677Z,4.70
2018-01-19T21:44:42.650Z,4.70
2018-01-19T21:47:16.973Z,4.70
2018-01-19T21:49:51.064Z,4.80
2018-01-19T21:52:25.867Z,4.70
2018-01-19T21:55:01.137Z,4.60
2018-01-19T21:57:35.861Z,4.50
2018-01-19T22:00:10.735Z,4.50
2018-01-19T22:02:44.724Z,4.40
2018-01-19T22:05:19.497Z,4.70
2018-01-19T22:07:53.304Z,4.70
2018-01-19T22:10:28.023Z,4.90
2018-01-19T22:13:02.753Z,4.90
2018-01-19T22:15:37.438Z,5.40
2018-01-19T22:18:11.587Z,5.40
2018-01-19T22:20:46.262Z,5.50
2018-01-19T22:23:22.335Z,5.30
2018-01-19T22:25:56.734Z,5.30
2018-01-19T22:28:30.619Z,5.40
2018-01-19T22:31:04.316Z,5.20
2018-01-19T22:33:38.306Z,5.20
2018-01-19T22:36:13.247Z,5.20
2018-01-19T22:38:48.222Z,5.20
2018-01-19T22:41:22.917Z,5.20
2018-01-19T22:43:57.908Z,5.10
2018-01-19T22:46:32.426Z,5.10
2018-01-19T22:49:06.461Z,5.10
2018-01-19T22:51:41.244Z,5.20
2018-01-19T22:54:15.224Z,5.20
2018-01-19T22:56:49.425Z,5.20
2018-01-19T22:59:24.684Z,5.30
2018-01-19T23:01:58.786Z,5.30
2018-01-19T23:04:33.703Z,5.30
2018-01-19T23:07:08.201Z,5.30
2018-01-19T23:09:41.984Z,5.30
2018-01-19T23:12:15.780Z,5.30
2018-01-19T23:14:49.623Z,5.40
2018-01-19T23:17:24.151Z,5.50
2018-01-19T23:19:57.980Z,5.40
2018-01-19T23:22:32.879Z,5.30
2018-01-19T23:25:07.023Z,5.30
2018-01-19T23:27:41.736Z,5.30
2018-01-19T23:30:15.681Z,5.30
2018-01-19T23:32:49.811Z,5.30
2018-01-19T23:35:24.393Z,5.40
2018-01-19T23:37:58.216Z,5.50
2018-01-19T23:40:32.723Z,5.20
2018-01-19T23:43:07.658Z,5.20
2018-01-19T23:45:42.290Z,5.30
2018-01-19T23:48:16.543Z,5.30
2018-01-19T23:50:50.327Z,5.10
2018-01-19T23:53:25.306Z,5.20
2018-01-19T23:55:59.427Z,5.20
2018-01-19T23:58:33.477Z,5.30
